Terminal Aerodrome Forecast
Issued by NWS

Home | Current Version | Previous Version | Text Only | Print | Product List | Glossary Off
Versions: 1 2 3 4 5 6 7 8 9 10 11 12 13 14 15

729
FTUS43 KICT 201735
TAFSLN
TAF
KSLN 201735Z 2018/2118 14013KT P6SM BKN200
     FM210300 11010KT P6SM VCSH OVC110
     FM210600 10009KT P6SM -SHRA OVC060
     FM210900 10009KT P6SM -SHRA OVC025
     FM211000 10010KT P6SM -SHRA OVC015
     FM211400 09010KT 4SM -RA OVC008=

USA.gov is the U.S. government's official web portal to all federal, state and local government web resources and services.